createdAt,value
2022-12-25T00:01:11.394Z,100.00
2022-12-25T00:04:14.466Z,100.00
2022-12-25T00:07:17.339Z,100.00
2022-12-25T00:10:20.473Z,100.00
2022-12-25T00:13:23.021Z,100.00
2022-12-25T00:16:26.845Z,100.00
2022-12-25T00:19:29.643Z,100.00
2022-12-25T00:22:32.567Z,100.00
2022-12-25T00:25:35.226Z,100.00
2022-12-25T00:28:38.568Z,100.00
2022-12-25T00:31:41.382Z,100.00
2022-12-25T00:34:44.240Z,100.00
2022-12-25T00:37:46.876Z,100.00
2022-12-25T00:40:49.884Z,100.00
2022-12-25T00:43:52.453Z,100.00
2022-12-25T00:46:55.308Z,100.00
2022-12-25T00:49:57.875Z,100.00
2022-12-25T00:53:00.615Z,100.00
2022-12-25T00:56:05.567Z,100.00
2022-12-25T00:59:08.477Z,100.00
2022-12-25T01:02:30.285Z,100.00
2022-12-25T01:05:33.330Z,100.00
2022-12-25T01:08:37.987Z,100.00
2022-12-25T01:11:40.901Z,100.00
2022-12-25T01:14:44.017Z,100.00
2022-12-25T01:17:46.973Z,100.00
2022-12-25T01:20:49.597Z,100.00
2022-12-25T01:23:53.684Z,100.00
2022-12-25T01:26:56.373Z,100.00
2022-12-25T01:29:59.504Z,100.00
2022-12-25T01:33:02.070Z,100.00
2022-12-25T01:36:12.585Z,100.00
2022-12-25T01:39:15.380Z,100.00
2022-12-25T01:42:21.936Z,100.00
2022-12-25T01:45:36.611Z,100.00
2022-12-25T01:48:40.293Z,100.00
2022-12-25T01:51:50.430Z,100.00
2022-12-25T01:54:56.436Z,100.00
2022-12-25T01:57:58.984Z,100.00
2022-12-25T02:01:02.052Z,100.00
2022-12-25T02:04:09.528Z,100.00
2022-12-25T02:07:22.211Z,100.00
2022-12-25T02:10:25.513Z,100.00
2022-12-25T02:13:29.123Z,100.00
2022-12-25T02:16:35.356Z,100.00
2022-12-25T02:20:10.220Z,100.00
2022-12-25T02:23:40.972Z,100.00
2022-12-25T02:27:03.295Z,100.00
2022-12-25T02:30:10.579Z,100.00
2022-12-25T02:33:40.257Z,100.00
2022-12-25T02:36:58.381Z,100.00
2022-12-25T02:40:17.479Z,100.00
2022-12-25T02:43:48.176Z,100.00
2022-12-25T02:47:10.254Z,100.00
2022-12-25T02:50:33.535Z,100.00
2022-12-25T02:53:55.276Z,100.00
2022-12-25T02:57:18.800Z,100.00
2022-12-25T03:00:40.191Z,100.00
2022-12-25T03:04:03.436Z,100.00
2022-12-25T03:07:17.417Z,100.00
2022-12-25T03:10:39.283Z,100.00
2022-12-25T03:13:43.545Z,100.00
2022-12-25T03:16:51.267Z,100.00
2022-12-25T03:20:22.889Z,100.00
2022-12-25T03:23:48.182Z,100.00
2022-12-25T03:26:56.896Z,100.00
2022-12-25T03:30:18.800Z,100.00
2022-12-25T03:33:50.486Z,100.00
2022-12-25T03:37:22.771Z,100.00
2022-12-25T03:40:53.196Z,100.00
2022-12-25T03:44:22.469Z,100.00
2022-12-25T03:47:35.196Z,100.00
2022-12-25T03:51:13.384Z,100.00
2022-12-25T03:54:38.059Z,100.00
2022-12-25T03:58:00.241Z,100.00
2022-12-25T04:01:21.436Z,100.00
2022-12-25T04:04:43.199Z,100.00
2022-12-25T04:08:04.738Z,100.00
2022-12-25T04:11:26.257Z,100.00
2022-12-25T04:14:47.458Z,100.00
2022-12-25T04:18:11.188Z,100.00
2022-12-25T04:21:32.807Z,100.00
2022-12-25T04:24:54.280Z,100.00
2022-12-25T04:28:20.573Z,100.00
2022-12-25T04:31:41.863Z,100.00
2022-12-25T04:35:03.436Z,100.00
2022-12-25T04:38:06.481Z,100.00
2022-12-25T04:41:11.783Z,100.00
2022-12-25T04:44:14.672Z,100.00
2022-12-25T04:47:17.279Z,100.00
2022-12-25T04:50:20.165Z,100.00
2022-12-25T04:53:23.065Z,100.00
2022-12-25T04:56:25.858Z,100.00
2022-12-25T04:59:28.586Z,100.00
2022-12-25T05:02:31.968Z,100.00
2022-12-25T05:05:34.724Z,100.00
2022-12-25T05:08:37.751Z,100.00
2022-12-25T05:11:40.519Z,100.00
2022-12-25T05:14:43.423Z,100.00
2022-12-25T05:17:45.980Z,100.00
2022-12-25T05:20:53.648Z,100.00
2022-12-25T05:23:56.254Z,100.00
2022-12-25T05:26:59.140Z,100.00
2022-12-25T05:30:01.922Z,100.00
2022-12-25T05:33:05.157Z,100.00
2022-12-25T05:36:09.214Z,100.00
2022-12-25T05:39:12.063Z,100.00
2022-12-25T05:42:14.759Z,100.00
2022-12-25T05:45:17.568Z,100.00
2022-12-25T05:48:20.343Z,100.00
2022-12-25T05:51:23.536Z,100.00
2022-12-25T05:54:26.089Z,100.00
2022-12-25T05:57:29.533Z,100.00
2022-12-25T06:00:32.273Z,100.00
2022-12-25T06:03:35.853Z,100.00
2022-12-25T06:06:38.336Z,100.00
2022-12-25T06:09:41.413Z,100.00
2022-12-25T06:12:43.916Z,100.00
2022-12-25T06:15:46.797Z,100.00
2022-12-25T06:18:54.213Z,100.00
2022-12-25T06:21:57.126Z,100.00
2022-12-25T06:24:59.814Z,100.00
2022-12-25T06:28:02.883Z,100.00
2022-12-25T06:31:07.598Z,100.00
2022-12-25T06:34:10.738Z,100.00
2022-12-25T06:37:13.327Z,100.00
2022-12-25T06:40:16.431Z,100.00
2022-12-25T06:43:19.105Z,100.00
2022-12-25T06:46:23.042Z,100.00
2022-12-25T06:49:25.898Z,100.00
2022-12-25T06:52:28.632Z,100.00
2022-12-25T06:55:31.148Z,100.00
2022-12-25T06:58:34.091Z,100.00
2022-12-25T07:01:47.126Z,100.00
2022-12-25T07:04:50.219Z,100.00
2022-12-25T07:07:52.922Z,100.00
2022-12-25T07:10:56.020Z,100.00
2022-12-25T07:13:58.974Z,100.00
2022-12-25T07:17:02.452Z,100.00
2022-12-25T07:20:07.027Z,100.00
2022-12-25T07:23:09.933Z,100.00
2022-12-25T07:26:13.055Z,100.00
2022-12-25T07:29:16.475Z,100.00
2022-12-25T07:32:19.540Z,100.00
2022-12-25T07:35:23.030Z,100.00
2022-12-25T07:38:25.679Z,100.00
2022-12-25T07:41:28.584Z,100.00
2022-12-25T07:44:31.512Z,100.00
2022-12-25T07:47:34.376Z,100.00
2022-12-25T07:50:37.236Z,100.00
2022-12-25T07:53:40.773Z,100.00
2022-12-25T07:56:43.330Z,100.00
2022-12-25T07:59:46.243Z,100.00
2022-12-25T08:02:50.206Z,100.00
2022-12-25T08:05:53.185Z,100.00
2022-12-25T08:08:57.175Z,100.00
2022-12-25T08:12:00.264Z,100.00
2022-12-25T08:15:02.739Z,100.00
2022-12-25T08:18:05.599Z,100.00
2022-12-25T08:21:13.281Z,100.00
2022-12-25T08:24:16.202Z,100.00
2022-12-25T08:27:18.721Z,100.00
2022-12-25T08:30:21.554Z,100.00
2022-12-25T08:33:24.197Z,100.00
2022-12-25T08:36:27.513Z,100.00
2022-12-25T08:39:30.263Z,100.00
2022-12-25T08:42:33.053Z,100.00
2022-12-25T08:45:35.646Z,100.00
2022-12-25T08:48:39.307Z,100.00
2022-12-25T08:51:44.649Z,100.00
2022-12-25T08:54:47.499Z,100.00
2022-12-25T08:57:52.714Z,100.00
2022-12-25T09:00:56.356Z,100.00
2022-12-25T09:03:59.534Z,100.00
2022-12-25T09:07:02.731Z,100.00
2022-12-25T09:10:05.840Z,100.00
2022-12-25T09:13:09.988Z,100.00
2022-12-25T09:16:16.356Z,100.00
2022-12-25T09:19:19.716Z,100.00
2022-12-25T09:22:22.278Z,100.00
2022-12-25T09:25:25.273Z,100.00
2022-12-25T09:28:28.279Z,100.00
2022-12-25T09:31:31.258Z,100.00
2022-12-25T09:34:34.595Z,100.00
2022-12-25T09:37:37.944Z,100.00
2022-12-25T09:40:41.401Z,100.00
2022-12-25T09:43:54.647Z,100.00
2022-12-25T09:47:06.021Z,100.00
2022-12-25T09:50:21.126Z,100.00
2022-12-25T09:53:28.846Z,100.00
2022-12-25T09:56:32.621Z,100.00
2022-12-25T09:59:35.232Z,100.00
2022-12-25T10:02:47.555Z,100.00
2022-12-25T10:06:19.672Z,99.91
2022-12-25T10:09:25.254Z,98.64
2022-12-25T10:12:53.721Z,97.88
2022-12-25T10:16:12.610Z,96.68
2022-12-25T10:19:53.782Z,94.90
2022-12-25T10:23:00.555Z,93.94
2022-12-25T10:26:04.489Z,93.05
2022-12-25T10:29:14.127Z,92.85
2022-12-25T10:32:17.144Z,92.30
2022-12-25T10:35:22.424Z,91.38
2022-12-25T10:38:25.523Z,91.63
2022-12-25T10:42:07.145Z,91.15
2022-12-25T10:45:10.479Z,91.31
2022-12-25T10:48:23.153Z,93.77
2022-12-25T10:51:37.866Z,97.02
2022-12-25T10:54:40.490Z,97.18
2022-12-25T10:57:47.264Z,98.57
2022-12-25T11:01:08.238Z,97.39
2022-12-25T11:04:21.822Z,95.39
2022-12-25T11:07:25.660Z,94.64
2022-12-25T11:10:37.356Z,93.28
2022-12-25T11:13:48.843Z,90.49
2022-12-25T11:16:51.745Z,85.87
2022-12-25T11:20:01.267Z,83.94
2022-12-25T11:23:10.604Z,81.52
2022-12-25T11:26:13.406Z,79.12
2022-12-25T11:29:25.478Z,77.69
2022-12-25T11:32:38.226Z,74.98
2022-12-25T11:35:49.131Z,74.95
2022-12-25T11:38:52.255Z,72.83
2022-12-25T11:42:03.887Z,73.41
2022-12-25T11:45:17.247Z,71.04
2022-12-25T11:48:32.286Z,72.49
2022-12-25T11:51:37.564Z,72.40
2022-12-25T11:54:52.062Z,72.03
2022-12-25T11:58:01.613Z,73.61
2022-12-25T12:01:09.179Z,72.81
2022-12-25T12:04:36.918Z,75.43
2022-12-25T12:07:52.344Z,78.44
2022-12-25T12:11:18.720Z,78.97
2022-12-25T12:14:21.209Z,82.34
2022-12-25T12:17:24.287Z,83.78
2022-12-25T12:20:30.118Z,84.42
2022-12-25T12:23:54.359Z,84.02
2022-12-25T12:27:06.072Z,86.61
2022-12-25T12:30:24.200Z,87.09
2022-12-25T12:33:31.127Z,88.29
2022-12-25T12:36:36.576Z,90.56
2022-12-25T12:39:40.709Z,92.19
2022-12-25T12:42:50.386Z,93.05
2022-12-25T12:46:13.231Z,91.73
2022-12-25T12:49:22.453Z,91.60
2022-12-25T12:52:35.594Z,89.95
2022-12-25T12:55:38.380Z,89.79
2022-12-25T12:58:50.038Z,88.02
2022-12-25T13:02:08.379Z,88.54
2022-12-25T13:05:34.466Z,86.09
2022-12-25T13:08:45.865Z,85.60
2022-12-25T13:11:49.364Z,85.49
2022-12-25T13:14:52.766Z,85.57
2022-12-25T13:17:58.063Z,85.23
2022-12-25T13:21:02.764Z,85.23
2022-12-25T13:24:20.572Z,87.02
2022-12-25T13:27:26.412Z,83.96
2022-12-25T13:30:29.220Z,86.54
2022-12-25T13:33:32.196Z,88.27
2022-12-25T13:36:38.620Z,88.36
2022-12-25T13:40:01.620Z,88.13
2022-12-25T13:43:05.161Z,90.19
2022-12-25T13:46:08.072Z,92.56
2022-12-25T13:49:19.513Z,93.34
2022-12-25T13:52:34.145Z,96.59
2022-12-25T13:55:36.983Z,97.39
2022-12-25T13:58:40.145Z,97.67
2022-12-25T14:01:43.896Z,97.64
2022-12-25T14:04:49.451Z,98.53
2022-12-25T14:07:53.560Z,100.00
2022-12-25T14:10:56.979Z,100.00
2022-12-25T14:14:05.926Z,100.00
2022-12-25T14:17:10.507Z,100.00
2022-12-25T14:20:37.244Z,100.00
2022-12-25T14:23:45.421Z,100.00
2022-12-25T14:26:47.961Z,100.00
2022-12-25T14:29:53.205Z,100.00
2022-12-25T14:32:56.500Z,100.00
2022-12-25T14:35:59.571Z,100.00
2022-12-25T14:39:05.511Z,100.00
2022-12-25T14:42:18.233Z,100.00
2022-12-25T14:45:25.846Z,100.00
2022-12-25T14:48:30.746Z,100.00
2022-12-25T14:51:35.452Z,100.00
2022-12-25T14:54:38.533Z,100.00
2022-12-25T14:57:41.303Z,100.00
2022-12-25T15:00:44.650Z,100.00
2022-12-25T15:03:49.235Z,100.00
2022-12-25T15:07:24.421Z,100.00
2022-12-25T15:13:50.374Z,100.00
2022-12-25T15:16:55.782Z,100.00
2022-12-25T15:20:00.323Z,100.00
2022-12-25T15:23:19.368Z,100.00
2022-12-25T15:26:23.501Z,100.00
2022-12-25T15:29:59.717Z,100.00
2022-12-25T15:32:49.094Z,100.00
2022-12-25T15:35:52.001Z,100.00
2022-12-25T15:38:55.299Z,100.00
2022-12-25T15:42:12.967Z,100.00
2022-12-25T15:45:27.073Z,100.00
2022-12-25T15:48:29.903Z,100.00
2022-12-25T15:51:33.427Z,100.00
2022-12-25T15:54:36.065Z,100.00
2022-12-25T15:57:41.823Z,100.00
2022-12-25T16:00:44.565Z,100.00
2022-12-25T16:03:47.801Z,100.00
2022-12-25T16:06:50.610Z,100.00
2022-12-25T16:09:53.549Z,100.00
2022-12-25T16:12:56.064Z,100.00
2022-12-25T16:15:59.082Z,100.00
2022-12-25T16:19:01.717Z,100.00
2022-12-25T16:22:14.290Z,100.00
2022-12-25T16:25:19.377Z,100.00
2022-12-25T16:28:22.237Z,100.00
2022-12-25T16:31:25.534Z,100.00
2022-12-25T16:34:28.625Z,100.00
2022-12-25T16:37:31.241Z,100.00
2022-12-25T16:40:34.319Z,100.00
2022-12-25T16:43:37.287Z,100.00
2022-12-25T16:46:40.623Z,100.00
2022-12-25T16:49:43.318Z,100.00
2022-12-25T16:52:46.161Z,100.00
2022-12-25T16:55:48.667Z,100.00
2022-12-25T16:58:51.971Z,100.00
2022-12-25T17:01:54.707Z,100.00
2022-12-25T17:04:58.272Z,100.00
2022-12-25T17:08:01.062Z,100.00
2022-12-25T17:11:05.062Z,100.00
2022-12-25T17:14:07.906Z,100.00
2022-12-25T17:17:10.800Z,100.00
2022-12-25T17:20:13.477Z,100.00
2022-12-25T17:23:16.245Z,100.00
2022-12-25T17:26:18.859Z,100.00
2022-12-25T17:29:22.573Z,100.00
2022-12-25T17:32:25.580Z,100.00
2022-12-25T17:35:29.265Z,100.00
2022-12-25T17:38:33.412Z,100.00
2022-12-25T17:41:36.522Z,100.00
2022-12-25T17:44:39.176Z,100.00
2022-12-25T17:47:42.044Z,100.00
2022-12-25T17:50:47.358Z,100.00
2022-12-25T17:53:52.800Z,100.00
2022-12-25T17:56:58.363Z,100.00
2022-12-25T18:00:01.573Z,100.00
2022-12-25T18:03:11.529Z,100.00
2022-12-25T18:06:17.854Z,100.00
2022-12-25T18:09:20.394Z,100.00
2022-12-25T18:12:23.295Z,100.00
2022-12-25T18:15:25.849Z,100.00
2022-12-25T18:18:29.205Z,100.00
2022-12-25T18:21:32.053Z,100.00
2022-12-25T18:24:35.127Z,100.00
2022-12-25T18:27:37.842Z,100.00
2022-12-25T18:30:42.243Z,100.00
2022-12-25T18:33:45.930Z,100.00
2022-12-25T18:36:49.050Z,100.00
2022-12-25T18:39:51.674Z,100.00
2022-12-25T18:43:01.096Z,100.00
2022-12-25T18:46:06.426Z,100.00
2022-12-25T18:49:11.012Z,100.00
2022-12-25T18:52:48.867Z,100.00
2022-12-25T18:55:40.491Z,100.00
2022-12-25T18:58:43.900Z,100.00
2022-12-25T19:01:46.886Z,100.00
2022-12-25T19:04:49.843Z,100.00
2022-12-25T19:07:52.693Z,100.00
2022-12-25T19:10:55.285Z,100.00
2022-12-25T19:13:58.791Z,100.00
2022-12-25T19:17:01.407Z,100.00
2022-12-25T19:20:06.104Z,100.00
2022-12-25T19:23:09.488Z,100.00
2022-12-25T19:26:12.517Z,100.00
2022-12-25T19:29:15.687Z,100.00
2022-12-25T19:32:18.479Z,100.00
2022-12-25T19:35:21.195Z,100.00
2022-12-25T19:38:24.255Z,100.00
2022-12-25T19:41:27.037Z,100.00
2022-12-25T19:44:30.149Z,100.00
2022-12-25T19:47:32.765Z,100.00
2022-12-25T19:50:35.742Z,100.00
2022-12-25T19:53:38.892Z,100.00
2022-12-25T19:56:42.901Z,100.00
2022-12-25T19:59:45.577Z,100.00
2022-12-25T20:02:48.540Z,100.00
2022-12-25T20:05:52.468Z,100.00
2022-12-25T20:08:57.491Z,100.00
2022-12-25T20:12:00.383Z,100.00
2022-12-25T20:15:03.300Z,100.00
2022-12-25T20:18:06.464Z,100.00
2022-12-25T20:21:14.090Z,100.00
2022-12-25T20:24:16.920Z,100.00
2022-12-25T20:27:19.825Z,100.00
2022-12-25T20:30:22.690Z,100.00
2022-12-25T20:33:25.241Z,100.00
2022-12-25T20:36:32.776Z,100.00
2022-12-25T20:39:38.960Z,100.00
2022-12-25T20:42:43.285Z,100.00
2022-12-25T20:45:46.064Z,100.00
2022-12-25T20:48:48.890Z,100.00
2022-12-25T20:51:51.433Z,100.00
2022-12-25T20:54:54.283Z,100.00
2022-12-25T20:57:56.810Z,100.00
2022-12-25T21:00:59.818Z,100.00
2022-12-25T21:04:02.909Z,100.00
2022-12-25T21:07:06.037Z,100.00
2022-12-25T21:10:09.071Z,100.00
2022-12-25T21:13:11.979Z,100.00
2022-12-25T21:16:17.314Z,100.00
2022-12-25T21:19:20.209Z,100.00
2022-12-25T21:22:22.816Z,100.00
2022-12-25T21:25:27.041Z,100.00
2022-12-25T21:28:30.241Z,100.00
2022-12-25T21:31:56.311Z,100.00
2022-12-25T21:34:58.866Z,100.00
2022-12-25T21:38:01.725Z,100.00
2022-12-25T21:41:06.919Z,100.00
2022-12-25T21:44:11.076Z,100.00
2022-12-25T21:47:13.621Z,100.00
2022-12-25T21:50:39.181Z,100.00
2022-12-25T21:53:42.050Z,100.00
2022-12-25T21:56:47.312Z,100.00
2022-12-25T21:59:49.873Z,100.00
2022-12-25T22:02:52.761Z,100.00
2022-12-25T22:06:21.418Z,100.00
2022-12-25T22:09:24.797Z,100.00
2022-12-25T22:12:46.448Z,100.00
2022-12-25T22:16:07.538Z,100.00
2022-12-25T22:19:28.943Z,100.00
2022-12-25T22:22:31.840Z,100.00
2022-12-25T22:25:34.658Z,100.00
2022-12-25T22:28:37.307Z,100.00
2022-12-25T22:31:46.482Z,100.00
2022-12-25T22:34:49.634Z,100.00
2022-12-25T22:37:54.005Z,100.00
2022-12-25T22:40:56.844Z,100.00
2022-12-25T22:44:17.039Z,100.00
2022-12-25T22:47:20.598Z,100.00
2022-12-25T22:50:23.541Z,100.00
2022-12-25T22:53:26.207Z,100.00
2022-12-25T22:56:29.119Z,100.00
2022-12-25T22:59:32.958Z,100.00
2022-12-25T23:02:36.003Z,100.00
2022-12-25T23:05:38.887Z,100.00
2022-12-25T23:08:41.747Z,100.00
2022-12-25T23:11:45.290Z,100.00
2022-12-25T23:14:48.135Z,100.00
2022-12-25T23:18:09.400Z,100.00
2022-12-25T23:21:35.597Z,100.00
2022-12-25T23:24:56.703Z,100.00
2022-12-25T23:27:59.592Z,100.00
2022-12-25T23:31:02.618Z,100.00
2022-12-25T23:34:06.574Z,100.00
2022-12-25T23:37:10.568Z,100.00
2022-12-25T23:40:13.518Z,100.00
2022-12-25T23:43:16.227Z,100.00
2022-12-25T23:46:19.901Z,100.00
2022-12-25T23:49:23.934Z,100.00
2022-12-25T23:52:26.788Z,100.00
2022-12-25T23:55:29.573Z,100.00
2022-12-25T23:58:32.571Z,100.00
